Time;durP1;ratioP1;P1;durP2;ratioP2;P2;SDS_P1;SDS_P2;PMS_P1;PMS_P2;Temp;Humidity;BMP_temperature;BMP_pressure;BME280_temperature;BME280_humidity;BME280_pressure;Samples;Min_cycle;Max_cycle;Signal;HPM_P1;HPM_P2
2022/03/04 00:04:26;;;;;;;22.15;13.55;;;;;;;5.11;100.00;98621.16;10292966;28;20026;-75
2022/03/04 00:09:27;;;;;;;19.45;11.30;;;;;;;5.08;100.00;98591.75;10306718;28;20100;-76
2022/03/04 00:14:28;;;;;;;19.50;12.10;;;;;;;4.77;100.00;98532.09;10291387;28;20122;-76
2022/03/04 00:19:29;;;;;;;16.45;11.50;;;;;;;5.71;100.00;98659.03;10291972;28;20047;-77
2022/03/04 00:24:30;;;;;;;17.38;12.02;;;;;;;5.60;100.00;98636.59;10306910;28;20042;-76
2022/03/04 00:29:31;;;;;;;17.48;11.30;;;;;;;4.86;100.00;98515.25;10292569;28;20035;-76
2022/03/04 00:34:32;;;;;;;17.33;11.15;;;;;;;5.75;100.00;98652.44;10291449;28;20394;-76
2022/03/04 00:39:32;;;;;;;13.73;9.10;;;;;;;5.80;100.00;98668.50;10291465;28;20415;-76
2022/03/04 00:44:33;;;;;;;12.65;6.47;;;;;;;5.34;100.00;98592.19;10291596;28;20494;-77
2022/03/04 00:49:34;;;;;;;9.07;6.07;;;;;;;4.94;100.00;98546.78;10307419;28;20057;-75
2022/03/04 00:54:35;;;;;;;7.65;4.78;;;;;;;5.03;100.00;98563.34;10299940;28;20463;-77
2022/03/04 00:59:36;;;;;;;5.97;3.95;;;;;;;5.61;100.00;98688.25;10299449;28;20027;-75
2022/03/04 01:04:37;;;;;;;4.25;2.80;;;;;;;5.42;100.00;98657.16;10298786;28;20467;-78
2022/03/04 01:09:38;;;;;;;4.88;2.78;;;;;;;5.44;100.00;98684.09;10337006;28;20065;-76
2022/03/04 01:14:38;;;;;;;4.32;2.92;;;;;;;4.78;100.00;98588.97;10337811;28;20034;-75
2022/03/04 01:19:39;;;;;;;4.45;3.15;;;;;;;5.15;100.00;98655.88;10337865;28;20066;-76
2022/03/04 01:24:40;;;;;;;3.53;2.50;;;;;;;5.19;100.00;98672.94;10338415;28;20165;-76
2022/03/04 01:29:41;;;;;;;4.15;3.10;;;;;;;5.09;99.68;98669.72;10336467;28;20030;-76
2022/03/04 01:34:42;;;;;;;4.15;3.30;;;;;;;4.84;100.00;98643.53;10337049;28;20038;-76
2022/03/04 01:39:43;;;;;;;3.70;2.95;;;;;;;4.73;100.00;98641.31;10337824;28;20113;-79
2022/03/04 01:44:45;;;;;;;3.45;2.40;;;;;;;4.69;98.21;98645.25;10336982;28;20129;-78
2022/03/04 01:49:45;;;;;;;3.20;2.28;;;;;;;4.94;96.85;98722.28;10336906;28;20528;-78
2022/03/04 01:54:46;;;;;;;3.08;2.10;;;;;;;4.05;95.79;98633.00;10336914;28;20034;-76
2022/03/04 01:59:47;;;;;;;3.97;2.60;;;;;;;3.92;95.28;98637.97;10336857;28;20092;-76
2022/03/04 02:04:51;;;;;;;3.40;2.30;;;;;;;4.65;96.24;98754.44;10335995;28;20097;-78
2022/03/04 02:09:52;;;;;;;3.33;2.00;;;;;;;3.94;96.61;98672.75;10336629;28;20046;-79
2022/03/04 02:14:53;;;;;;;3.15;1.90;;;;;;;4.66;96.49;98803.41;10336035;28;20510;-82
2022/03/04 02:19:54;;;;;;;3.17;2.45;;;;;;;4.12;94.30;98733.00;10335709;28;20034;-78
2022/03/04 02:24:54;;;;;;;4.60;2.90;;;;;;;4.22;94.99;98770.47;10334337;28;20045;-77
2022/03/04 02:29:55;;;;;;;3.72;2.58;;;;;;;4.23;95.54;98792.31;10336249;28;20371;-80
2022/03/04 02:34:56;;;;;;;4.03;2.78;;;;;;;3.41;96.59;98676.69;10335136;28;20442;-78
2022/03/04 02:39:57;;;;;;;7.82;2.70;;;;;;;4.10;96.55;98785.75;10335171;28;20030;-79
2022/03/04 02:44:58;;;;;;;4.68;2.88;;;;;;;3.52;97.18;98696.56;10307346;28;20054;-77
2022/03/04 02:49:59;;;;;;;3.45;2.10;;;;;;;3.71;96.72;98719.06;10302916;28;20402;-77
2022/03/04 02:55:00;;;;;;;4.30;3.15;;;;;;;3.99;97.00;98772.09;10295490;28;20066;-79
2022/03/04 03:00:01;;;;;;;4.60;2.75;;;;;;;3.93;96.54;98772.75;10294912;28;20035;-86
2022/03/04 03:05:02;;;;;;;5.32;3.60;;;;;;;2.96;95.35;98628.94;10294061;28;20475;-79
2022/03/04 03:10:04;;;;;;;4.47;2.92;;;;;;;3.72;95.77;98749.59;10323920;28;20045;-80
2022/03/04 03:15:06;;;;;;;4.63;3.10;;;;;;;2.83;95.55;98657.44;10329831;28;20039;-81
2022/03/04 03:20:08;;;;;;;5.15;3.70;;;;;;;3.71;96.03;98837.22;10333827;28;20041;-78
2022/03/04 03:25:09;;;;;;;6.07;4.05;;;;;;;3.69;95.51;98832.16;10332820;28;20441;-79
2022/03/04 03:30:11;;;;;;;5.90;4.50;;;;;;;2.94;95.39;98732.38;10333017;28;20368;-76
2022/03/04 03:35:12;;;;;;;9.13;5.90;;;;;;;3.53;94.94;98826.84;10332643;28;20044;-79
2022/03/04 03:40:14;;;;;;;10.02;7.15;;;;;;;3.60;95.30;98841.81;10334213;28;20522;-76
2022/03/04 03:45:15;;;;;;;15.80;9.55;;;;;;;3.64;94.71;98845.75;10333462;28;20050;-78
2022/03/04 03:50:16;;;;;;;12.60;8.15;;;;;;;3.58;93.89;98835.09;10332324;28;20034;-80
2022/03/04 03:55:17;;;;;;;16.98;10.80;;;;;;;3.00;93.80;98757.97;10330428;28;20097;-77
2022/03/04 04:00:17;;;;;;;18.60;10.85;;;;;;;3.51;93.23;98842.78;10319080;28;20445;-74
2022/03/04 04:05:19;;;;;;;15.18;9.70;;;;;;;3.73;93.18;98885.19;10332130;28;20087;-79
2022/03/04 04:10:20;;;;;;;19.38;13.27;;;;;;;3.55;93.22;98888.72;10331797;28;20034;-76
2022/03/04 04:15:21;;;;;;;16.77;11.88;;;;;;;3.24;93.22;98843.84;10331441;28;20031;-82
2022/03/04 04:20:22;;;;;;;18.88;12.35;;;;;;;3.57;92.77;98897.28;10332283;28;20374;-76
2022/03/04 04:25:23;;;;;;;17.65;12.23;;;;;;;3.81;92.19;98920.19;10334429;28;20446;-77
2022/03/04 04:30:24;;;;;;;19.50;12.98;;;;;;;3.74;92.43;98923.59;10340931;28;20042;-77
2022/03/04 04:35:25;;;;;;;15.95;11.60;;;;;;;3.51;92.14;98876.09;10339684;28;20088;-78
2022/03/04 04:40:26;;;;;;;15.82;11.73;;;;;;;3.88;92.13;98930.84;10340637;28;20422;-78
2022/03/04 04:45:27;;;;;;;15.30;9.38;;;;;;;3.94;91.36;98924.97;10340125;28;20470;-75
2022/03/04 04:50:28;;;;;;;14.85;10.93;;;;;;;3.33;90.92;98832.38;10339623;28;20372;-78
2022/03/04 04:55:29;;;;;;;11.43;7.97;;;;;;;4.01;90.66;98925.13;10339232;28;20050;-78
2022/03/04 05:00:30;;;;;;;10.18;7.38;;;;;;;4.04;89.92;98925.66;10338759;28;20046;-77
2022/03/04 05:05:31;;;;;;;10.40;7.43;;;;;;;3.04;89.21;98769.78;10338054;28;20037;-80
2022/03/04 05:10:32;;;;;;;8.50;6.47;;;;;;;3.89;88.56;98895.75;10340464;28;20030;-81
2022/03/04 05:15:33;;;;;;;6.32;4.65;;;;;;;4.10;88.08;98917.13;10339246;28;20034;-78
2022/03/04 05:20:34;;;;;;;7.13;5.25;;;;;;;4.09;88.00;98923.34;10339316;28;20485;-80
2022/03/04 05:25:36;;;;;;;8.23;5.68;;;;;;;4.06;87.78;98913.16;10338283;28;20038;-78
2022/03/04 05:30:37;;;;;;;7.22;4.70;;;;;;;2.72;86.59;98690.03;10339256;28;20038;-79
2022/03/04 05:35:37;;;;;;;6.07;4.13;;;;;;;4.16;86.35;98909.56;10337055;28;20039;-83
2022/03/04 05:40:38;;;;;;;7.00;3.95;;;;;;;4.30;85.01;98933.41;10339262;28;20031;-79
2022/03/04 05:45:39;;;;;;;7.22;5.63;;;;;;;4.14;84.78;98893.16;10338545;28;20383;-80
2022/03/04 05:50:40;;;;;;;6.78;4.57;;;;;;;3.79;84.98;98817.06;10338836;28;20482;-83
2022/03/04 05:55:41;;;;;;;7.20;4.05;;;;;;;4.26;83.67;98886.59;10337855;28;20057;-80
2022/03/04 06:00:42;;;;;;;4.68;3.03;;;;;;;4.47;83.97;98920.28;10337686;28;20046;-78
2022/03/04 06:05:43;;;;;;;6.78;4.68;;;;;;;4.33;84.27;98875.25;10336869;28;20033;-80
2022/03/04 06:10:45;;;;;;;6.30;4.35;;;;;;;4.58;83.55;98902.38;10336569;28;20463;-84
2022/03/04 06:15:46;;;;;;;5.60;3.60;;;;;;;4.02;83.07;98821.69;10337054;28;20470;-83
2022/03/04 06:20:46;;;;;;;6.40;4.22;;;;;;;4.65;82.47;98888.56;10335147;28;20042;-78
2022/03/04 06:25:48;;;;;;;6.18;3.55;;;;;;;4.87;81.48;98902.84;10335355;28;20030;-83
2022/03/04 06:30:48;;;;;;;5.22;3.58;;;;;;;3.81;79.74;98743.38;10335756;28;20422;-78
2022/03/04 06:35:49;;;;;;;5.75;3.30;;;;;;;5.01;80.00;98925.84;10335336;28;20096;-78
2022/03/04 06:40:51;;;;;;;5.63;3.50;;;;;;;5.09;79.28;98922.41;10335391;28;20133;-80
2022/03/04 06:45:52;;;;;;;5.53;3.50;;;;;;;5.17;78.69;98925.81;10335477;28;20372;-79
2022/03/04 06:50:53;;;;;;;6.85;2.97;;;;;;;5.30;78.22;98937.66;10333718;28;20042;-81
2022/03/04 06:55:54;;;;;;;3.70;2.40;;;;;;;5.19;76.39;98905.41;10335249;28;20037;-81
2022/03/04 07:00:55;;;;;;;3.88;2.15;;;;;;;5.03;75.33;98872.06;10334025;28;20045;-80
2022/03/04 07:05:56;;;;;;;3.85;1.92;;;;;;;4.75;75.74;98811.09;10333923;28;20057;-81
2022/03/04 07:10:57;;;;;;;3.10;2.00;;;;;;;4.79;75.89;98816.88;10333673;28;20121;-80
2022/03/04 07:15:58;;;;;;;4.38;2.20;;;;;;;5.57;74.80;98939.06;10334254;28;20038;-80
2022/03/04 07:20:59;;;;;;;11.10;2.10;;;;;;;5.65;74.77;98953.03;10333996;28;20038;-81
2022/03/04 07:26:00;;;;;;;3.60;1.75;;;;;;;5.71;73.81;98940.94;10333891;28;20031;-84
2022/03/04 07:31:02;;;;;;;3.60;1.75;;;;;;;4.87;72.99;98805.50;10333080;28;20038;-80
2022/03/04 07:36:04;;;;;;;3.28;1.55;;;;;;;5.64;73.45;98913.66;10333172;28;20034;-81
2022/03/04 07:41:05;;;;;;;2.42;1.48;;;;;;;5.93;72.88;98952.59;10334010;28;20041;-79
2022/03/04 07:46:06;;;;;;;2.83;1.25;;;;;;;5.88;71.79;98920.63;10333345;28;20050;-82
2022/03/04 07:51:07;;;;;;;4.93;1.42;;;;;;;6.07;71.25;98941.31;10332892;28;20031;-80
2022/03/04 07:56:10;;;;;;;4.38;1.75;;;;;;;6.18;71.77;98945.38;10331993;28;20057;-84
2022/03/04 08:01:11;;;;;;;2.47;1.38;;;;;;;6.28;71.43;98927.53;10332538;28;20434;-81
2022/03/04 08:06:12;;;;;;;3.15;1.75;;;;;;;5.49;70.45;98803.75;10331914;28;20120;-79
2022/03/04 08:11:13;;;;;;;5.00;1.52;;;;;;;5.71;69.70;98844.31;10332796;28;20367;-79
2022/03/04 08:16:14;;;;;;;4.03;2.35;;;;;;;5.69;71.02;98811.22;10332060;28;20038;-81
2022/03/04 08:21:14;;;;;;;7.80;2.70;;;;;;;5.63;69.97;98820.63;10332720;28;20034;-81
2022/03/04 08:26:15;;;;;;;6.68;1.95;;;;;;;6.25;69.81;98893.59;10331703;28;20089;-79
2022/03/04 08:31:16;;;;;;;7.93;2.60;;;;;;;6.14;70.44;98867.63;10331393;28;20113;-83
2022/03/04 08:36:17;;;;;;;3.63;2.40;;;;;;;6.55;68.64;98936.72;10331098;28;20475;-81
2022/03/04 08:41:18;;;;;;;6.90;3.47;;;;;;;6.32;68.63;98883.97;10332294;28;20026;-82
2022/03/04 08:46:19;;;;;;;5.35;3.47;;;;;;;6.65;69.62;98936.47;10331771;28;20077;-84
2022/03/04 08:51:24;;;;;;;5.88;3.72;;;;;;;6.74;68.29;98934.59;10332302;28;20069;-83
2022/03/04 08:56:25;;;;;;;7.18;2.92;;;;;;;6.67;67.89;98921.31;10330994;28;20038;-85
2022/03/04 09:01:26;;;;;;;9.82;3.22;;;;;;;6.29;67.71;98813.13;10331572;28;20093;-81
2022/03/04 09:06:27;;;;;;;7.15;3.03;;;;;;;6.06;66.83;98744.59;10332242;28;20057;-85
2022/03/04 09:11:27;;;;;;;7.30;2.75;;;;;;;6.44;65.99;98799.97;10333639;28;20034;-87
2022/03/04 09:16:31;;;;;;;6.68;2.45;;;;;;;7.16;66.65;98922.66;10338925;28;20045;-85
2022/03/04 09:21:32;;;;;;;9.90;3.67;;;;;;;6.77;66.79;98818.94;10339361;28;20042;-87
2022/03/04 09:26:33;;;;;;;7.13;3.35;;;;;;;6.66;66.89;98771.88;10339074;28;20113;-87
2022/03/04 09:31:34;;;;;;;4.93;2.60;;;;;;;7.31;65.95;98852.97;10339571;28;20061;-85
2022/03/04 09:36:35;;;;;;;7.80;3.15;;;;;;;5.54;65.39;98546.94;10338001;28;20066;-87
2022/03/04 09:41:40;;;;;;;10.90;2.13;;;;;;;7.35;63.49;98813.00;10337824;28;20041;-85
2022/03/04 09:46:41;;;;;;;5.55;2.67;;;;;;;7.77;63.70;98847.41;10338646;28;20486;-88
2022/03/04 09:51:42;;;;;;;6.57;2.05;;;;;;;6.78;62.38;98680.69;10338048;28;20038;-82
2022/03/04 09:56:43;;;;;;;8.73;1.85;;;;;;;8.04;61.42;98884.72;10338048;28;20038;-78
2022/03/04 10:01:44;;;;;;;14.32;2.30;;;;;;;7.95;60.59;98878.72;10336697;28;20116;-83
2022/03/04 10:06:48;;;;;;;8.45;2.10;;;;;;;7.59;60.59;98839.09;10337410;28;20070;-84
2022/03/04 10:12:02;;;;;;;21.15;3.00;;;;;;;7.76;61.32;98866.94;10336464;28;20035;-90
2022/03/04 10:17:05;;;;;;;16.20;2.80;;;;;;;7.84;61.58;98881.03;10337390;28;20061;-81
2022/03/04 10:22:06;;;;;;;9.07;2.33;;;;;;;7.81;61.22;98873.47;10335158;28;20471;-81
2022/03/04 10:27:12;;;;;;;14.98;2.88;;;;;;;7.86;62.18;98892.25;10336696;28;20035;-86
2022/03/04 10:32:22;;;;;;;15.98;2.47;;;;;;;7.04;60.65;98738.28;10336161;28;20026;-88
2022/03/04 10:37:46;;;;;;;18.05;2.22;;;;;;;7.87;59.91;98875.41;10335988;28;20038;-83
2022/03/04 10:42:49;;;;;;;26.95;3.40;;;;;;;7.54;59.98;98859.97;10335644;28;20097;-82
2022/03/04 10:48:17;;;;;;;18.75;2.35;;;;;;;7.87;60.51;98886.00;10335176;28;20043;-82
2022/03/04 10:53:22;;;;;;;27.50;2.90;;;;;;;7.83;59.27;98890.81;10335900;28;20446;-79
2022/03/04 10:58:30;;;;;;;19.83;2.90;;;;;;;7.14;60.21;98800.53;10335055;28;20038;-81
2022/03/04 11:03:33;;;;;;;19.90;2.53;;;;;;;7.86;58.74;98868.47;10334915;28;20035;-79
2022/03/04 11:08:35;;;;;;;39.67;3.30;;;;;;;7.86;58.41;98892.25;10334137;28;20030;-82
2022/03/04 11:13:37;;;;;;;23.23;2.63;;;;;;;7.01;57.57;98733.34;10334027;28;20030;-81
2022/03/04 11:18:38;;;;;;;25.67;2.78;;;;;;;7.76;57.30;98871.41;10334193;28;20041;-86
2022/03/04 11:23:39;;;;;;;33.42;3.70;;;;;;;7.53;58.99;98837.19;10334237;28;20049;-84
2022/03/04 11:28:43;;;;;;;19.77;2.75;;;;;;;6.73;59.50;98685.72;10334004;28;20031;-84
2022/03/04 11:33:48;;;;;;;19.63;2.75;;;;;;;7.89;57.70;98870.72;10306695;28;20026;-83
2022/03/04 11:38:49;;;;;;;36.22;3.53;;;;;;;7.90;58.67;98910.22;10314169;28;20430;-87
2022/03/04 11:44:08;;;;;;;27.45;3.17;;;;;;;7.49;59.15;98878.22;10313719;28;20104;-88
2022/03/04 11:49:46;;;;;;;21.48;3.00;;;;;;;7.82;59.11;98935.94;10292408;28;20035;-85
2022/03/04 11:54:50;;;;;;;16.63;2.50;;;;;;;7.28;58.67;98863.91;10293400;28;20049;-82
2022/03/04 11:59:56;;;;;;;53.60;4.55;;;;;;;6.58;59.55;98770.16;10292243;28;20038;-84
2022/03/04 12:10:47;;;;;;;37.92;3.17;;;;;;;7.87;58.81;98944.97;10291981;28;20383;-87
2022/03/04 12:15:58;;;;;;;41.95;5.07;;;;;;;7.95;57.31;98952.78;10291616;28;20141;-80
2022/03/04 12:21:01;;;;;;;59.50;4.65;;;;;;;8.08;56.26;98948.69;10292501;28;20043;-83
2022/03/04 12:26:02;;;;;;;61.55;5.70;;;;;;;8.17;56.42;98944.91;10293260;28;20027;-79
2022/03/04 12:31:06;;;;;;;59.15;4.22;;;;;;;8.17;57.47;98950.19;10291309;28;20057;-84
2022/03/04 12:36:11;;;;;;;82.80;5.93;;;;;;;7.75;56.85;98889.09;10291064;28;20434;-84
2022/03/04 12:41:18;;;;;;;72.80;6.90;;;;;;;8.16;56.14;98956.47;10292169;28;20446;-80
2022/03/04 12:46:25;;;;;;;58.72;4.47;;;;;;;7.42;55.84;98850.88;10322754;28;20050;-85
2022/03/04 12:51:29;;;;;;;145.88;8.38;;;;;;;8.07;55.55;98942.53;10335504;28;20034;-82
2022/03/04 12:56:31;;;;;;;68.90;5.85;;;;;;;7.87;56.05;98949.44;10313356;28;20046;-83
2022/03/04 13:01:32;;;;;;;85.45;5.75;;;;;;;7.52;54.64;98893.69;10317292;28;20415;-81
2022/03/04 13:06:34;;;;;;;52.33;5.30;;;;;;;7.82;55.16;98926.19;10306417;28;20070;-78
2022/03/04 13:11:44;;;;;;;33.40;4.38;;;;;;;7.84;55.72;98955.91;10332531;28;20138;-82
2022/03/04 13:16:49;;;;;;;67.53;4.80;;;;;;;7.73;55.55;98982.81;10330657;28;20518;-80
2022/03/04 13:22:04;;;;;;;43.25;4.70;;;;;;;7.67;53.73;98918.28;10299781;28;20426;-80
2022/03/04 13:27:14;;;;;;;42.55;4.22;;;;;;;7.54;53.10;98940.06;10330924;28;20096;-81
2022/03/04 13:32:26;;;;;;;78.05;7.18;;;;;;;7.58;52.16;98961.66;10337629;28;20145;-79
2022/03/04 13:37:28;;;;;;;101.35;7.32;;;;;;;7.57;52.26;98982.97;10335192;28;20046;-81
2022/03/04 13:42:34;;;;;;;31.60;3.55;;;;;;;7.34;53.36;98960.09;10336754;28;20042;-82
2022/03/04 13:47:47;;;;;;;45.90;4.00;;;;;;;6.84;54.13;98885.00;10334854;28;20108;-84
2022/03/04 13:53:05;;;;;;;31.67;4.60;;;;;;;7.37;53.68;99004.66;10327025;28;20097;-84
2022/03/04 13:58:27;;;;;;;50.53;5.38;;;;;;;7.20;53.77;98989.97;10321520;28;20038;-83
2022/03/04 14:03:30;;;;;;;61.05;5.47;;;;;;;7.08;54.45;98998.31;10336855;28;20034;-79
2022/03/04 14:08:31;;;;;;;37.85;4.32;;;;;;;7.02;53.30;99014.03;10337294;28;20497;-84
2022/03/04 14:13:32;;;;;;;44.67;4.70;;;;;;;7.05;52.84;99035.63;10336548;28;20129;-77
2022/03/04 14:18:34;;;;;;;100.38;7.38;;;;;;;6.39;53.21;98956.09;10336644;28;20117;-85
2022/03/04 14:23:37;;;;;;;58.50;5.63;;;;;;;6.48;53.95;98985.09;10336422;28;20038;-85
2022/03/04 14:28:38;;;;;;;63.67;6.85;;;;;;;6.71;55.10;99032.59;10326128;28;20040;-81
2022/03/04 14:33:38;;;;;;;22.52;3.72;;;;;;;5.92;54.58;98945.63;10292962;28;20059;-81
2022/03/04 14:38:39;;;;;;;64.43;5.43;;;;;;;5.63;54.61;98917.28;10329087;28;20034;-79
2022/03/04 14:43:40;;;;;;;42.67;5.50;;;;;;;6.24;55.48;99047.50;10333411;28;20097;-86
2022/03/04 14:48:45;;;;;;;25.60;3.90;;;;;;;6.23;55.67;99071.44;10307842;28;20034;-79
2022/03/04 14:53:47;;;;;;;35.35;5.20;;;;;;;5.76;55.88;99022.94;10329135;28;20467;-83
2022/03/04 14:58:48;;;;;;;74.38;5.30;;;;;;;6.21;56.68;99090.06;10301584;28;20437;-82
2022/03/04 15:03:51;;;;;;;83.75;6.43;;;;;;;6.08;57.21;99097.69;10320839;28;20092;-84
2022/03/04 15:08:53;;;;;;;46.65;5.22;;;;;;;5.78;57.23;99091.31;10295909;28;20138;-80
2022/03/04 15:13:54;;;;;;;76.68;6.50;;;;;;;6.10;57.86;99166.88;10320238;28;20026;-77
2022/03/04 15:18:55;;;;;;;57.53;5.00;;;;;;;6.10;58.04;99193.25;10333920;28;20154;-85
2022/03/04 15:23:56;;;;;;;30.85;5.03;;;;;;;5.85;58.45;99156.34;10333256;28;20026;-83
2022/03/04 15:28:57;;;;;;;26.65;4.25;;;;;;;5.99;59.25;99196.25;10334599;28;20048;-83
2022/03/04 15:33:58;;;;;;;25.90;4.95;;;;;;;5.81;59.31;99188.47;10332840;28;20550;-80
2022/03/04 15:38:59;;;;;;;36.17;4.40;;;;;;;4.97;59.07;99059.59;10333651;28;20113;-85
2022/03/04 15:44:00;;;;;;;19.23;4.00;;;;;;;5.50;61.03;99199.66;10334502;28;20494;-88
2022/03/04 15:49:01;;;;;;;9.70;3.85;;;;;;;5.55;62.21;99217.63;10334017;28;20034;-83
2022/03/04 15:54:03;;;;;;;21.42;4.35;;;;;;;5.58;62.61;99259.44;10328012;28;20398;-87
2022/03/04 15:59:08;;;;;;;15.43;4.57;;;;;;;5.07;63.24;99198.13;10314162;28;20045;-83
2022/03/04 16:04:11;;;;;;;19.60;4.70;;;;;;;4.88;64.02;99191.31;10303291;28;20483;-83
2022/03/04 16:09:13;;;;;;;13.73;4.15;;;;;;;4.50;64.07;99131.16;10305691;28;20158;-82
2022/03/04 16:14:19;;;;;;;27.45;4.72;;;;;;;5.39;64.01;99279.81;10298734;28;20049;-81
2022/03/04 16:19:20;;;;;;;37.38;5.25;;;;;;;5.07;64.07;99254.22;10290280;28;20080;-85
2022/03/04 16:24:21;;;;;;;14.73;3.42;;;;;;;4.32;63.93;99130.44;10292773;28;20154;-85
2022/03/04 16:29:23;;;;;;;26.95;5.40;;;;;;;4.72;65.00;99208.66;10292899;28;20497;-84
2022/03/04 16:34:25;;;;;;;11.82;3.72;;;;;;;4.74;65.42;99242.72;10290379;28;20387;-79
2022/03/04 16:39:29;;;;;;;18.88;5.18;;;;;;;5.09;65.86;99327.78;10301123;28;20042;-82
2022/03/04 16:44:30;;;;;;;5.90;2.83;;;;;;;4.26;65.53;99202.88;10324069;28;20048;-85
2022/03/04 16:49:31;;;;;;;15.95;4.40;;;;;;;4.99;66.37;99333.13;10320101;28;20030;-79
2022/03/04 16:54:34;;;;;;;17.20;3.58;;;;;;;3.98;66.54;99167.19;10326517;28;20046;-82
2022/03/04 16:59:35;;;;;;;24.70;4.77;;;;;;;4.96;66.70;99342.16;10327252;28;20042;-82
2022/03/04 17:04:41;;;;;;;27.10;5.20;;;;;;;4.73;66.34;99314.75;10321177;28;20638;-83
2022/03/04 17:09:43;;;;;;;29.23;4.43;;;;;;;4.83;67.50;99347.03;10321783;28;20034;-84
2022/03/04 17:14:45;;;;;;;24.33;5.53;;;;;;;3.58;67.65;99166.75;10325610;28;20493;-85
2022/03/04 17:19:48;;;;;;;11.25;4.43;;;;;;;4.14;68.20;99261.09;10326997;28;20117;-86
2022/03/04 17:24:49;;;;;;;7.90;3.72;;;;;;;2.58;68.05;99023.53;10324014;28;20037;-81
2022/03/04 17:29:50;;;;;;;15.90;4.35;;;;;;;3.89;68.25;99242.53;10323782;28;20034;-82
2022/03/04 17:34:50;;;;;;;11.60;4.32;;;;;;;4.49;68.76;99352.25;10330779;28;20030;-83
2022/03/04 17:39:53;;;;;;;6.13;3.78;;;;;;;3.88;69.25;99270.59;10332887;28;20038;-80
2022/03/04 17:44:55;;;;;;;9.82;4.55;;;;;;;4.08;69.37;99315.94;10330954;28;20050;-80
2022/03/04 17:49:55;;;;;;;10.45;4.20;;;;;;;3.13;70.23;99167.66;10333165;28;20042;-81
2022/03/04 17:54:56;;;;;;;11.32;4.10;;;;;;;3.93;70.40;99304.31;10336543;28;20067;-84
2022/03/04 17:59:57;;;;;;;7.88;4.30;;;;;;;4.10;70.44;99342.06;10336260;28;20034;-84
2022/03/04 18:04:58;;;;;;;10.93;4.38;;;;;;;4.21;71.06;99354.97;10335839;28;20031;-80
2022/03/04 18:09:59;;;;;;;15.48;3.88;;;;;;;3.98;71.20;99323.06;10334832;28;20054;-80
2022/03/04 18:15:00;;;;;;;14.55;4.10;;;;;;;4.01;70.97;99338.53;10336402;28;20433;-81
2022/03/04 18:20:02;;;;;;;15.85;4.35;;;;;;;3.66;71.67;99300.78;10334870;28;20497;-84
2022/03/04 18:25:03;;;;;;;15.48;3.95;;;;;;;2.40;71.40;99117.88;10335175;28;20509;-82
2022/03/04 18:30:05;;;;;;;9.15;3.90;;;;;;;3.37;71.22;99279.13;10335172;28;20046;-84
2022/03/04 18:35:07;;;;;;;10.38;4.22;;;;;;;3.77;71.29;99352.28;10334593;28;20030;-83
2022/03/04 18:40:27;;;;;;;10.45;4.32;;;;;;;3.07;71.48;99244.34;10326380;28;20022;-81
2022/03/04 18:45:40;;;;;;;10.40;4.13;;;;;;;3.46;70.96;99293.16;10325829;28;20201;-87
2022/03/04 18:50:41;;;;;;;8.93;4.15;;;;;;;3.78;70.98;99388.06;10294337;28;20479;-80
2022/03/04 18:55:43;;;;;;;13.05;4.47;;;;;;;3.51;71.09;99328.50;10322708;28;20042;-83
2022/03/04 19:00:44;;;;;;;6.10;3.72;;;;;;;3.37;71.12;99310.63;10334315;28;20039;-83
2022/03/04 19:05:45;;;;;;;10.32;4.70;;;;;;;2.69;71.17;99230.47;10333621;28;20035;-83
2022/03/04 19:10:46;;;;;;;12.00;4.40;;;;;;;3.54;71.27;99341.34;10333620;28;20485;-83
2022/03/04 19:15:46;;;;;;;8.98;3.78;;;;;;;3.45;71.65;99315.16;10307098;28;20037;-87
2022/03/04 19:20:47;;;;;;;15.57;4.40;;;;;;;2.79;71.23;99222.56;10331792;28;20116;-82
2022/03/04 19:25:48;;;;;;;17.23;4.30;;;;;;;1.88;71.23;99066.94;10332482;28;20062;-87
2022/03/04 19:30:49;;;;;;;33.67;4.60;;;;;;;2.93;71.53;99261.44;10330815;28;20398;-82
2022/03/04 19:35:51;;;;;;;24.17;3.85;;;;;;;3.12;71.00;99291.16;10333189;28;20508;-82
2022/03/04 19:40:52;;;;;;;12.82;3.38;;;;;;;2.34;70.82;99159.56;10323579;28;20070;-83
2022/03/04 19:45:53;;;;;;;7.78;3.55;;;;;;;3.33;70.83;99304.84;10324007;28;20148;-82
2022/03/04 19:50:55;;;;;;;12.13;4.35;;;;;;;3.29;70.57;99324.50;10333762;28;20041;-79
2022/03/04 19:55:57;;;;;;;9.18;3.15;;;;;;;2.47;70.39;99217.72;10332975;28;20220;-84
2022/03/04 20:00:58;;;;;;;8.30;3.00;;;;;;;2.89;69.44;99273.16;10327752;28;20027;-84
2022/03/04 20:05:58;;;;;;;25.17;3.75;;;;;;;2.85;69.02;99284.09;10318744;28;20042;-83
2022/03/04 20:10:59;;;;;;;14.80;3.10;;;;;;;3.01;68.58;99328.06;10333798;28;20038;-85
2022/03/04 20:16:00;;;;;;;7.15;3.03;;;;;;;2.63;68.16;99265.16;10331161;28;20132;-83
2022/03/04 20:21:03;;;;;;;6.40;2.72;;;;;;;3.18;66.89;99341.25;10332573;28;20085;-83
2022/03/04 20:26:04;;;;;;;10.30;2.75;;;;;;;2.64;66.45;99266.78;10331049;28;20529;-86
2022/03/04 20:31:05;;;;;;;19.85;3.20;;;;;;;2.89;66.24;99302.03;10332038;28;20030;-85
2022/03/04 20:36:06;;;;;;;15.13;3.42;;;;;;;2.93;65.84;99310.41;10332420;28;20088;-85
2022/03/04 20:41:07;;;;;;;17.02;2.83;;;;;;;3.14;64.48;99324.16;10332220;28;20026;-83
2022/03/04 20:46:08;;;;;;;20.90;2.88;;;;;;;3.00;63.82;99287.09;10331975;28;20386;-88
2022/03/04 20:51:09;;;;;;;15.75;2.65;;;;;;;3.08;64.13;99298.50;10332366;28;20501;-85
2022/03/04 20:56:10;;;;;;;10.15;3.25;;;;;;;3.06;64.01;99297.81;10331844;28;20050;-84
2022/03/04 21:01:11;;;;;;;12.40;3.15;;;;;;;2.98;63.89;99311.66;10331503;28;20112;-81
2022/03/04 21:06:12;;;;;;;15.15;3.20;;;;;;;2.51;63.71;99250.53;10331968;28;20431;-86
2022/03/04 21:11:12;;;;;;;19.88;2.90;;;;;;;2.71;63.68;99264.41;10338594;28;20089;-84
2022/03/04 21:16:13;;;;;;;15.60;2.88;;;;;;;2.88;63.44;99315.28;10339028;28;20034;-83
2022/03/04 21:21:15;;;;;;;23.98;3.33;;;;;;;2.84;63.30;99316.53;10338488;28;20463;-83
2022/03/04 21:26:18;;;;;;;22.38;2.88;;;;;;;1.78;63.39;99151.59;10339085;28;20034;-85
2022/03/04 21:31:18;;;;;;;24.30;3.53;;;;;;;2.14;63.71;99221.69;10338377;28;20030;-85
2022/03/04 21:36:19;;;;;;;24.05;3.03;;;;;;;2.15;64.02;99229.41;10338175;28;20034;-89
2022/03/04 21:41:20;;;;;;;26.98;3.25;;;;;;;2.49;64.41;99286.56;10338725;28;20125;-84
2022/03/04 21:46:21;;;;;;;16.08;3.22;;;;;;;2.74;65.12;99345.41;10336590;28;20042;-81
2022/03/04 21:51:22;;;;;;;25.02;3.67;;;;;;;1.96;65.48;99239.94;10336583;28;20400;-84
2022/03/04 21:56:23;;;;;;;26.60;3.35;;;;;;;2.38;65.64;99321.63;10336813;28;20042;-86
2022/03/04 22:01:24;;;;;;;24.35;3.38;;;;;;;1.52;65.79;99195.03;10337884;28;20034;-82
2022/03/04 22:06:24;;;;;;;26.95;4.10;;;;;;;2.11;66.06;99274.38;10337651;28;20462;-86
2022/03/04 22:11:25;;;;;;;14.95;3.47;;;;;;;1.87;66.10;99240.75;10337002;28;20493;-81
2022/03/04 22:16:26;;;;;;;14.50;3.47;;;;;;;2.00;66.05;99264.84;10336555;28;20041;-85
2022/03/04 22:21:27;;;;;;;11.05;2.80;;;;;;;1.65;66.55;99219.16;10335797;28;20514;-86
2022/03/04 22:26:28;;;;;;;5.80;2.97;;;;;;;2.45;67.18;99359.44;10336362;28;20177;-84
2022/03/04 22:31:29;;;;;;;11.80;3.25;;;;;;;2.26;67.10;99331.44;10336268;28;20128;-83
2022/03/04 22:36:30;;;;;;;7.47;3.42;;;;;;;2.01;67.52;99269.97;10335973;28;20401;-79
2022/03/04 22:41:32;;;;;;;7.43;3.17;;;;;;;2.28;67.88;99337.38;10336215;28;20462;-81
2022/03/04 22:46:33;;;;;;;7.75;3.70;;;;;;;1.73;68.39;99244.63;10335176;28;20061;-79
2022/03/04 22:51:34;;;;;;;10.30;3.20;;;;;;;2.02;68.50;99289.94;10335809;28;20034;-81
2022/03/04 22:56:35;;;;;;;8.45;3.72;;;;;;;2.34;69.41;99345.66;10334348;28;20390;-81
2022/03/04 23:01:36;;;;;;;9.50;3.72;;;;;;;2.06;69.84;99311.44;10334789;28;20033;-81
2022/03/04 23:11:57;;;;;;;14.60;4.03;;;;;;;2.13;71.46;99294.22;10334015;28;20034;-83
2022/03/04 23:16:58;;;;;;;9.80;4.18;;;;;;;0.76;72.01;99067.53;10334465;28;20418;-80
2022/03/04 23:21:59;;;;;;;9.60;4.32;;;;;;;1.82;72.74;99234.16;10334044;28;20124;-82
2022/03/04 23:27:00;;;;;;;7.93;4.70;;;;;;;2.08;72.89;99270.22;10333388;28;20371;-79
2022/03/04 23:32:01;;;;;;;7.90;4.03;;;;;;;1.48;73.13;99173.53;10333131;28;20371;-83
2022/03/04 23:37:02;;;;;;;9.60;4.57;;;;;;;2.04;73.66;99279.34;10333151;28;20457;-80
2022/03/04 23:42:03;;;;;;;7.28;4.43;;;;;;;2.22;74.16;99282.91;10333626;28;20061;-84